sensor_id;sensor_type;location;lat;lon;timestamp;pressure;altitude;pressure_sealevel;temperature;humidity
19890;BME280;10107;51.198;6.824;2023-06-14T00:00:08;-21807.63;;;18.80;52.24
19890;BME280;10107;51.198;6.824;2023-06-14T00:04:10;-21807.75;;;18.81;51.90
19890;BME280;10107;51.198;6.824;2023-06-14T00:08:13;-21805.78;;;18.73;51.40
19890;BME280;10107;51.198;6.824;2023-06-14T00:12:16;-21803.97;;;18.66;52.87
19890;BME280;10107;51.198;6.824;2023-06-14T00:16:18;-21802.25;;;18.59;53.53
19890;BME280;10107;51.198;6.824;2023-06-14T00:20:21;-21803.84;;;18.66;52.05
19890;BME280;10107;51.198;6.824;2023-06-14T00:24:23;-21805.66;;;18.73;50.53
19890;BME280;10107;51.198;6.824;2023-06-14T00:28:29;-21806.56;;;18.76;50.34
19890;BME280;10107;51.198;6.824;2023-06-14T00:32:30;-21806.44;;;18.76;49.87
19890;BME280;10107;51.198;6.824;2023-06-14T00:36:32;-21805.41;;;18.72;50.90
19890;BME280;10107;51.198;6.824;2023-06-14T00:40:36;-21801.34;;;18.56;51.53
19890;BME280;10107;51.198;6.824;2023-06-14T00:44:39;-21797.44;;;18.40;52.84
19890;BME280;10107;51.198;6.824;2023-06-14T00:48:42;-21794.16;;;18.28;53.63
19890;BME280;10107;51.198;6.824;2023-06-14T00:52:44;-21791.41;;;18.17;54.27
19890;BME280;10107;51.198;6.824;2023-06-14T00:56:46;-21789.44;;;18.09;54.77
19890;BME280;10107;51.198;6.824;2023-06-14T01:00:50;-21787.34;;;18.01;55.39
19890;BME280;10107;51.198;6.824;2023-06-14T01:04:52;-21785.25;;;17.93;56.16
19890;BME280;10107;51.198;6.824;2023-06-14T01:09:06;-21783.81;;;17.87;56.25
19890;BME280;10107;51.198;6.824;2023-06-14T01:13:15;-21782.66;;;17.83;56.21
19890;BME280;10107;51.198;6.824;2023-06-14T01:17:24;-21781.84;;;17.79;55.34
19890;BME280;10107;51.198;6.824;2023-06-14T01:21:27;-21781.59;;;17.78;55.76
19890;BME280;10107;51.198;6.824;2023-06-14T01:25:31;-21781.34;;;17.77;56.00
19890;BME280;10107;51.198;6.824;2023-06-14T01:29:35;-21781.19;;;17.77;55.71
19890;BME280;10107;51.198;6.824;2023-06-14T01:33:41;-21780.94;;;17.76;56.00
19890;BME280;10107;51.198;6.824;2023-06-14T01:37:47;-21780.28;;;17.73;56.53
19890;BME280;10107;51.198;6.824;2023-06-14T01:41:53;-21778.72;;;17.67;56.81
19890;BME280;10107;51.198;6.824;2023-06-14T01:45:55;-21777.81;;;17.64;56.88
19890;BME280;10107;51.198;6.824;2023-06-14T01:50:02;-21776.22;;;17.57;56.48
19890;BME280;10107;51.198;6.824;2023-06-14T01:54:05;-21775.97;;;17.56;57.11
19890;BME280;10107;51.198;6.824;2023-06-14T01:58:08;-21775.31;;;17.54;57.84
19890;BME280;10107;51.198;6.824;2023-06-14T02:02:11;-21773.47;;;17.47;57.15
19890;BME280;10107;51.198;6.824;2023-06-14T02:06:12;-21773.34;;;17.46;57.30
19890;BME280;10107;51.198;6.824;2023-06-14T02:10:16;-21773.34;;;17.46;57.45
19890;BME280;10107;51.198;6.824;2023-06-14T02:14:20;-21772.44;;;17.42;57.55
19890;BME280;10107;51.198;6.824;2023-06-14T02:18:23;-21770.34;;;17.34;57.93
19890;BME280;10107;51.198;6.824;2023-06-14T02:22:25;-21768.38;;;17.27;58.47
19890;BME280;10107;51.198;6.824;2023-06-14T02:26:27;-21766.41;;;17.19;58.92
19890;BME280;10107;51.198;6.824;2023-06-14T02:30:32;-21763.91;;;17.09;59.13
19890;BME280;10107;51.198;6.824;2023-06-14T02:34:34;-21762.47;;;17.03;59.52
19890;BME280;10107;51.198;6.824;2023-06-14T02:38:36;-21762.47;;;17.03;59.54
19890;BME280;10107;51.198;6.824;2023-06-14T02:42:37;-21762.09;;;17.02;58.66
19890;BME280;10107;51.198;6.824;2023-06-14T02:46:42;-21760.63;;;16.96;58.88
19890;BME280;10107;51.198;6.824;2023-06-14T02:50:45;-21758.69;;;16.89;59.56
19890;BME280;10107;51.198;6.824;2023-06-14T02:54:47;-21756.31;;;16.79;60.53
19890;BME280;10107;51.198;6.824;2023-06-14T02:58:50;-21755.25;;;16.75;60.61
19890;BME280;10107;51.198;6.824;2023-06-14T03:02:54;-21753.44;;;16.68;60.54
19890;BME280;10107;51.198;6.824;2023-06-14T03:06:56;-21751.59;;;16.61;61.12
19890;BME280;10107;51.198;6.824;2023-06-14T03:10:58;-21752.63;;;16.65;59.78
19890;BME280;10107;51.198;6.824;2023-06-14T03:15:01;-21754.09;;;16.71;59.30
19890;BME280;10107;51.198;6.824;2023-06-14T03:19:07;-21754.88;;;16.74;59.71
19890;BME280;10107;51.198;6.824;2023-06-14T03:23:10;-21753.94;;;16.70;59.72
19890;BME280;10107;51.198;6.824;2023-06-14T03:27:12;-21753.28;;;16.68;60.77
19890;BME280;10107;51.198;6.824;2023-06-14T03:31:21;-21752.91;;;16.66;61.22
19890;BME280;10107;51.198;6.824;2023-06-14T03:35:26;-21751.47;;;16.60;62.28
19890;BME280;10107;51.198;6.824;2023-06-14T03:39:30;-21750.66;;;16.57;62.78
19890;BME280;10107;51.198;6.824;2023-06-14T03:43:32;-21749.34;;;16.52;62.92
19890;BME280;10107;51.198;6.824;2023-06-14T03:47:35;-21748.56;;;16.49;63.25
19890;BME280;10107;51.198;6.824;2023-06-14T03:51:39;-21748.97;;;16.51;63.33
19890;BME280;10107;51.198;6.824;2023-06-14T03:55:41;-21749.75;;;16.54;63.32
19890;BME280;10107;51.198;6.824;2023-06-14T03:59:43;-21751.31;;;16.60;62.98
19890;BME280;10107;51.198;6.824;2023-06-14T04:03:45;-21752.91;;;16.66;63.44
19890;BME280;10107;51.198;6.824;2023-06-14T04:07:48;-21755.38;;;16.76;62.62
19890;BME280;10107;51.198;6.824;2023-06-14T04:11:51;-21758.41;;;16.88;62.39
19890;BME280;10107;51.198;6.824;2023-06-14T04:15:53;-21761.56;;;17.00;61.95
19890;BME280;10107;51.198;6.824;2023-06-14T04:20:02;-21763.13;;;17.06;61.16
19890;BME280;10107;51.198;6.824;2023-06-14T04:24:07;-21767.06;;;17.21;60.87
19890;BME280;10107;51.198;6.824;2023-06-14T04:28:17;-21772.31;;;17.42;56.18
19890;BME280;10107;51.198;6.824;2023-06-14T04:32:21;-21778.31;;;17.66;54.67
19890;BME280;10107;51.198;6.824;2023-06-14T04:36:23;-21783.56;;;17.86;52.96
19890;BME280;10107;51.198;6.824;2023-06-14T04:40:26;-21790.50;;;18.13;51.85
19890;BME280;10107;51.198;6.824;2023-06-14T04:44:28;-21796.78;;;18.38;51.15
19890;BME280;10107;51.198;6.824;2023-06-14T04:48:34;-21806.06;;;18.74;49.68
19890;BME280;10107;51.198;6.824;2023-06-14T04:52:35;-21817.03;;;19.17;48.34
19890;BME280;10107;51.198;6.824;2023-06-14T04:56:41;-21829.03;;;19.65;46.60
19890;BME280;10107;51.198;6.824;2023-06-14T05:00:44;-21839.22;;;20.05;45.97
19890;BME280;10107;51.198;6.824;2023-06-14T05:04:47;-21850.28;;;20.48;44.13
19890;BME280;10107;51.198;6.824;2023-06-14T05:08:48;-21867.47;;;21.16;43.17
19890;BME280;10107;51.198;6.824;2023-06-14T05:12:52;-21885.03;;;21.85;41.77
19890;BME280;10107;51.198;6.824;2023-06-14T05:16:55;-21906.19;;;22.69;40.02
19890;BME280;10107;51.198;6.824;2023-06-14T05:20:57;-21921.22;;;23.28;38.25
19890;BME280;10107;51.198;6.824;2023-06-14T05:24:59;-21940.00;;;24.03;37.35
19890;BME280;10107;51.198;6.824;2023-06-14T05:29:02;-21959.53;;;24.80;36.09
19890;BME280;10107;51.198;6.824;2023-06-14T05:33:04;-21978.38;;;25.55;34.47
19890;BME280;10107;51.198;6.824;2023-06-14T05:37:05;-21985.75;;;25.84;33.82
19890;BME280;10107;51.198;6.824;2023-06-14T05:41:07;-21992.06;;;26.10;32.93
19890;BME280;10107;51.198;6.824;2023-06-14T05:45:10;-22004.94;;;26.61;31.34
19890;BME280;10107;51.198;6.824;2023-06-14T05:49:12;-22017.28;;;27.10;31.02
19890;BME280;10107;51.198;6.824;2023-06-14T05:53:13;-22030.03;;;27.61;30.49
19890;BME280;10107;51.198;6.824;2023-06-14T05:57:15;-22045.19;;;28.21;29.40
19890;BME280;10107;51.198;6.824;2023-06-14T06:01:18;-22061.09;;;28.85;28.59
19890;BME280;10107;51.198;6.824;2023-06-14T06:05:20;-22077.09;;;29.49;27.67
19890;BME280;10107;51.198;6.824;2023-06-14T06:09:22;-22086.06;;;29.85;26.92
19890;BME280;10107;51.198;6.824;2023-06-14T06:13:23;-22100.75;;;30.44;26.39
19890;BME280;10107;51.198;6.824;2023-06-14T06:17:26;-22098.09;;;30.33;26.13
19890;BME280;10107;51.198;6.824;2023-06-14T06:21:28;-22111.75;;;30.88;25.52
19890;BME280;10107;51.198;6.824;2023-06-14T06:25:30;-22116.09;;;31.06;24.55
19890;BME280;10107;51.198;6.824;2023-06-14T06:29:32;-22137.38;;;31.91;24.24
19890;BME280;10107;51.198;6.824;2023-06-14T06:33:35;-22169.31;;;33.20;22.83
19890;BME280;10107;51.198;6.824;2023-06-14T06:37:37;-22173.63;;;33.38;22.11
19890;BME280;10107;51.198;6.824;2023-06-14T06:41:38;-22175.53;;;33.45;21.88
19890;BME280;10107;51.198;6.824;2023-06-14T06:45:40;-22194.69;;;34.23;21.28
19890;BME280;10107;51.198;6.824;2023-06-14T06:49:44;-22200.25;;;34.45;20.54
19890;BME280;10107;51.198;6.824;2023-06-14T06:53:51;-22199.75;;;34.43;20.43
19890;BME280;10107;51.198;6.824;2023-06-14T06:57:53;-22217.59;;;35.16;19.95
19890;BME280;10107;51.198;6.824;2023-06-14T07:01:55;-22227.97;;;35.58;18.92
19890;BME280;10107;51.198;6.824;2023-06-14T07:05:58;-22224.31;;;35.43;18.58
19890;BME280;10107;51.198;6.824;2023-06-14T07:10:00;-22249.56;;;36.45;17.27
19890;BME280;10107;51.198;6.824;2023-06-14T07:14:04;-22274.25;;;37.46;16.52
19890;BME280;10107;51.198;6.824;2023-06-14T07:18:09;-22251.22;;;36.52;16.70
19890;BME280;10107;51.198;6.824;2023-06-14T07:22:12;-22275.13;;;37.50;16.25
19890;BME280;10107;51.198;6.824;2023-06-14T07:26:13;-22319.59;;;39.31;15.63
19890;BME280;10107;51.198;6.824;2023-06-14T07:30:15;-22350.00;;;40.56;14.81
19890;BME280;10107;51.198;6.824;2023-06-14T07:34:17;-22338.75;;;40.10;15.24
19890;BME280;10107;51.198;6.824;2023-06-14T07:38:20;-22336.50;;;40.01;14.03
19890;BME280;10107;51.198;6.824;2023-06-14T07:42:22;-22350.50;;;40.58;13.61
19890;BME280;10107;51.198;6.824;2023-06-14T07:46:23;-22359.63;;;40.95;13.44
19890;BME280;10107;51.198;6.824;2023-06-14T07:50:25;-22339.38;;;40.12;13.54
19890;BME280;10107;51.198;6.824;2023-06-14T07:54:28;-22382.94;;;41.91;12.83
19890;BME280;10107;51.198;6.824;2023-06-14T07:58:30;-22361.25;;;41.02;12.41
19890;BME280;10107;51.198;6.824;2023-06-14T08:02:32;-22347.00;;;40.44;13.02
19890;BME280;10107;51.198;6.824;2023-06-14T08:06:33;-22320.09;;;39.33;13.43
19890;BME280;10107;51.198;6.824;2023-06-14T08:10:37;-22272.38;;;37.38;14.78
19890;BME280;10107;51.198;6.824;2023-06-14T08:14:39;-22245.28;;;36.28;15.65
19890;BME280;10107;51.198;6.824;2023-06-14T08:18:41;-22234.16;;;35.83;16.57
19890;BME280;10107;51.198;6.824;2023-06-14T08:22:43;-22222.28;;;35.35;16.97
19890;BME280;10107;51.198;6.824;2023-06-14T08:26:48;-22209.13;;;34.81;16.49
19890;BME280;10107;51.198;6.824;2023-06-14T08:30:49;-22216.72;;;35.12;16.54
19890;BME280;10107;51.198;6.824;2023-06-14T08:34:51;-22232.91;;;35.78;16.24
19890;BME280;10107;51.198;6.824;2023-06-14T08:38:53;-22235.81;;;35.89;16.18
19890;BME280;10107;51.198;6.824;2023-06-14T08:42:56;-22228.22;;;35.59;17.22
19890;BME280;10107;51.198;6.824;2023-06-14T08:46:59;-22240.09;;;36.07;16.15
19890;BME280;10107;51.198;6.824;2023-06-14T08:51:01;-22224.31;;;35.43;17.61
19890;BME280;10107;51.198;6.824;2023-06-14T08:55:04;-22230.13;;;35.66;17.60
19890;BME280;10107;51.198;6.824;2023-06-14T08:59:07;-22232.78;;;35.77;17.35
19890;BME280;10107;51.198;6.824;2023-06-14T09:03:10;-22225.19;;;35.46;18.04
19890;BME280;10107;51.198;6.824;2023-06-14T09:07:13;-22223.31;;;35.39;18.43
19890;BME280;10107;51.198;6.824;2023-06-14T09:11:17;-22227.22;;;35.55;18.19
19890;BME280;10107;51.198;6.824;2023-06-14T09:15:20;-22229.50;;;35.64;17.73
19890;BME280;10107;51.198;6.824;2023-06-14T09:19:23;-22235.94;;;35.90;17.71
19890;BME280;10107;51.198;6.824;2023-06-14T09:23:25;-22223.56;;;35.40;17.63
19890;BME280;10107;51.198;6.824;2023-06-14T09:27:27;-22229.00;;;35.62;18.08
19890;BME280;10107;51.198;6.824;2023-06-14T09:31:30;-22211.16;;;34.89;19.45
19890;BME280;10107;51.198;6.824;2023-06-14T09:35:33;-22218.88;;;35.21;18.15
19890;BME280;10107;51.198;6.824;2023-06-14T09:39:35;-22200.53;;;34.46;17.32
19890;BME280;10107;51.198;6.824;2023-06-14T09:43:37;-22209.25;;;34.82;18.20
19890;BME280;10107;51.198;6.824;2023-06-14T09:47:40;-22200.25;;;34.45;18.13
19890;BME280;10107;51.198;6.824;2023-06-14T09:51:43;-22216.09;;;35.09;18.28
19890;BME280;10107;51.198;6.824;2023-06-14T09:55:48;-22207.09;;;34.73;18.09
19890;BME280;10107;51.198;6.824;2023-06-14T09:59:53;-22216.59;;;35.11;18.17
19890;BME280;10107;51.198;6.824;2023-06-14T10:04:02;-22225.56;;;35.48;18.14
19890;BME280;10107;51.198;6.824;2023-06-14T10:08:05;-22232.91;;;35.78;17.31
19890;BME280;10107;51.198;6.824;2023-06-14T10:12:10;-22230.88;;;35.69;17.29
19890;BME280;10107;51.198;6.824;2023-06-14T10:16:19;-22208.38;;;34.78;17.88
19890;BME280;10107;51.198;6.824;2023-06-14T10:20:28;-22212.66;;;34.96;18.47
19890;BME280;10107;51.198;6.824;2023-06-14T10:24:33;-22228.09;;;35.58;18.22
19890;BME280;10107;51.198;6.824;2023-06-14T10:28:37;-22253.47;;;36.61;17.74
19890;BME280;10107;51.198;6.824;2023-06-14T10:33:03;-22256.38;;;36.73;16.71
19890;BME280;10107;51.198;6.824;2023-06-14T10:37:12;-22239.09;;;36.03;17.65
19890;BME280;10107;51.198;6.824;2023-06-14T10:41:16;-22224.69;;;35.44;18.23
19890;BME280;10107;51.198;6.824;2023-06-14T10:45:18;-22186.44;;;33.89;19.17
19890;BME280;10107;51.198;6.824;2023-06-14T10:49:36;-22196.72;;;34.31;19.35
19890;BME280;10107;51.198;6.824;2023-06-14T10:53:45;-22201.91;;;34.52;20.35
19890;BME280;10107;51.198;6.824;2023-06-14T10:57:47;-22220.41;;;35.27;19.04
19890;BME280;10107;51.198;6.824;2023-06-14T11:01:58;-22209.13;;;34.81;19.08
19890;BME280;10107;51.198;6.824;2023-06-14T11:06:13;-22211.66;;;34.91;19.21
19890;BME280;10107;51.198;6.824;2023-06-14T11:10:26;-22206.72;;;34.71;19.62
19890;BME280;10107;51.198;6.824;2023-06-14T11:14:33;-22184.16;;;33.80;19.84
19890;BME280;10107;51.198;6.824;2023-06-14T11:18:36;-22194.69;;;34.23;20.51
19890;BME280;10107;51.198;6.824;2023-06-14T11:22:41;-22200.25;;;34.45;21.21
19890;BME280;10107;51.198;6.824;2023-06-14T11:26:44;-22200.38;;;34.46;19.74
19890;BME280;10107;51.198;6.824;2023-06-14T11:30:46;-22214.69;;;35.04;20.39
19890;BME280;10107;51.198;6.824;2023-06-14T11:34:47;-22259.03;;;36.84;18.03
19890;BME280;10107;51.198;6.824;2023-06-14T11:38:49;-22242.63;;;36.17;18.56
19890;BME280;10107;51.198;6.824;2023-06-14T11:42:58;-22212.94;;;34.97;20.43
19890;BME280;10107;51.198;6.824;2023-06-14T11:47:03;-22212.16;;;34.94;20.01
19890;BME280;10107;51.198;6.824;2023-06-14T11:51:05;-22214.69;;;35.04;19.44
19890;BME280;10107;51.198;6.824;2023-06-14T11:55:08;-22212.28;;;34.94;19.96
19890;BME280;10107;51.198;6.824;2023-06-14T11:59:13;-22189.25;;;34.01;20.63
19890;BME280;10107;51.198;6.824;2023-06-14T12:03:15;-22177.31;;;33.52;20.94
19890;BME280;10107;51.198;6.824;2023-06-14T12:07:17;-22169.19;;;33.20;21.51
19890;BME280;10107;51.198;6.824;2023-06-14T12:11:20;-22165.88;;;33.06;21.84
19890;BME280;10107;51.198;6.824;2023-06-14T12:15:23;-22156.72;;;32.69;21.32
19890;BME280;10107;51.198;6.824;2023-06-14T12:19:25;-22141.84;;;32.09;22.37
19890;BME280;10107;51.198;6.824;2023-06-14T12:23:38;-22159.91;;;32.82;22.24
19890;BME280;10107;51.198;6.824;2023-06-14T12:27:40;-22170.59;;;33.25;22.50
19890;BME280;10107;51.198;6.824;2023-06-14T12:31:43;-22153.28;;;32.55;21.90
19890;BME280;10107;51.198;6.824;2023-06-14T12:35:45;-22134.31;;;31.79;22.24
19890;BME280;10107;51.198;6.824;2023-06-14T12:39:47;-22140.31;;;32.03;23.13
19890;BME280;10107;51.198;6.824;2023-06-14T12:43:48;-22155.19;;;32.63;23.67
19890;BME280;10107;51.198;6.824;2023-06-14T12:47:51;-22145.41;;;32.24;22.97
19890;BME280;10107;51.198;6.824;2023-06-14T12:51:53;-22134.44;;;31.80;24.45
19890;BME280;10107;51.198;6.824;2023-06-14T12:55:54;-22156.59;;;32.69;22.88
19890;BME280;10107;51.198;6.824;2023-06-14T12:59:56;-22163.97;;;32.99;23.08
19890;BME280;10107;51.198;6.824;2023-06-14T13:03:59;-22148.06;;;32.34;23.66
19890;BME280;10107;51.198;6.824;2023-06-14T13:08:00;-22127.44;;;31.51;23.67
19890;BME280;10107;51.198;6.824;2023-06-14T13:12:03;-22106.50;;;30.67;24.77
19890;BME280;10107;51.198;6.824;2023-06-14T13:16:05;-22108.69;;;30.76;25.64
19890;BME280;10107;51.198;6.824;2023-06-14T13:20:09;-22112.66;;;30.92;24.88
19890;BME280;10107;51.198;6.824;2023-06-14T13:24:11;-22114.56;;;30.99;25.06
19890;BME280;10107;51.198;6.824;2023-06-14T13:28:13;-22124.63;;;31.40;24.47
19890;BME280;10107;51.198;6.824;2023-06-14T13:32:14;-22125.78;;;31.45;24.51
19890;BME280;10107;51.198;6.824;2023-06-14T13:36:17;-22126.94;;;31.49;25.49
19890;BME280;10107;51.198;6.824;2023-06-14T13:40:19;-22120.44;;;31.23;24.42
19890;BME280;10107;51.198;6.824;2023-06-14T13:44:21;-22102.81;;;30.52;25.15
19890;BME280;10107;51.198;6.824;2023-06-14T13:48:22;-22094.63;;;30.19;25.53
19890;BME280;10107;51.198;6.824;2023-06-14T13:52:25;-22088.09;;;29.93;25.81
19890;BME280;10107;51.198;6.824;2023-06-14T13:56:28;-22097.69;;;30.32;26.25
19890;BME280;10107;51.198;6.824;2023-06-14T14:00:30;-22090.28;;;30.02;25.60
19890;BME280;10107;51.198;6.824;2023-06-14T14:04:33;-22090.28;;;30.02;26.41
19890;BME280;10107;51.198;6.824;2023-06-14T14:08:36;-22081.84;;;29.68;26.68
19890;BME280;10107;51.198;6.824;2023-06-14T14:12:38;-22083.38;;;29.74;27.36
19890;BME280;10107;51.198;6.824;2023-06-14T14:16:40;-22071.59;;;29.27;27.36
19890;BME280;10107;51.198;6.824;2023-06-14T14:20:42;-22086.06;;;29.85;26.98
19890;BME280;10107;51.198;6.824;2023-06-14T14:24:45;-22089.91;;;30.00;26.34
19890;BME280;10107;51.198;6.824;2023-06-14T14:28:47;-22085.16;;;29.81;26.10
19890;BME280;10107;51.198;6.824;2023-06-14T14:32:49;-22093.59;;;30.15;26.06
19890;BME280;10107;51.198;6.824;2023-06-14T14:36:53;-22098.72;;;30.36;25.40
19890;BME280;10107;51.198;6.824;2023-06-14T14:40:57;-22096.66;;;30.28;25.43
19890;BME280;10107;51.198;6.824;2023-06-14T14:44:59;-22096.41;;;30.27;26.16
19890;BME280;10107;51.198;6.824;2023-06-14T14:49:00;-22084.03;;;29.77;26.40
19890;BME280;10107;51.198;6.824;2023-06-14T14:53:03;-22076.59;;;29.47;26.74
19890;BME280;10107;51.198;6.824;2023-06-14T14:57:06;-22075.31;;;29.42;26.34
19890;BME280;10107;51.198;6.824;2023-06-14T15:01:08;-22072.50;;;29.31;26.84
19890;BME280;10107;51.198;6.824;2023-06-14T15:05:10;-22069.81;;;29.20;26.90
19890;BME280;10107;51.198;6.824;2023-06-14T15:09:12;-22066.22;;;29.06;27.05
19890;BME280;10107;51.198;6.824;2023-06-14T15:13:16;-22061.47;;;28.87;28.09
19890;BME280;10107;51.198;6.824;2023-06-14T15:17:19;-22049.81;;;28.40;27.76
19890;BME280;10107;51.198;6.824;2023-06-14T15:21:23;-22056.84;;;28.68;27.32
19890;BME280;10107;51.198;6.824;2023-06-14T15:25:26;-22051.09;;;28.45;27.65
19890;BME280;10107;51.198;6.824;2023-06-14T15:29:29;-22049.41;;;28.38;28.21
19890;BME280;10107;51.198;6.824;2023-06-14T15:33:30;-22051.97;;;28.49;27.18
19890;BME280;10107;51.198;6.824;2023-06-14T15:37:32;-22043.78;;;28.16;28.04
19890;BME280;10107;51.198;6.824;2023-06-14T15:41:34;-22040.31;;;28.02;28.08
19890;BME280;10107;51.198;6.824;2023-06-14T15:45:37;-22036.31;;;27.86;27.83
19890;BME280;10107;51.198;6.824;2023-06-14T15:49:39;-22037.22;;;27.90;27.43
19890;BME280;10107;51.198;6.824;2023-06-14T15:53:41;-22036.44;;;27.87;27.87
19890;BME280;10107;51.198;6.824;2023-06-14T15:57:42;-22037.09;;;27.89;28.14
19890;BME280;10107;51.198;6.824;2023-06-14T16:01:45;-22041.06;;;28.05;29.32
19890;BME280;10107;51.198;6.824;2023-06-14T16:05:47;-22043.91;;;28.16;27.76
19890;BME280;10107;51.198;6.824;2023-06-14T16:09:48;-22035.69;;;27.83;28.07
19890;BME280;10107;51.198;6.824;2023-06-14T16:13:50;-22017.41;;;27.11;28.94
19890;BME280;10107;51.198;6.824;2023-06-14T16:17:53;-22015.09;;;27.01;29.46
19890;BME280;10107;51.198;6.824;2023-06-14T16:21:55;-22021.41;;;27.26;29.05
19890;BME280;10107;51.198;6.824;2023-06-14T16:25:56;-22027.47;;;27.51;29.09
19890;BME280;10107;51.198;6.824;2023-06-14T16:29:58;-22026.03;;;27.45;27.75
19890;BME280;10107;51.198;6.824;2023-06-14T16:34:01;-22022.31;;;27.30;28.99
19890;BME280;10107;51.198;6.824;2023-06-14T16:38:05;-22010.22;;;26.82;29.62
19890;BME280;10107;51.198;6.824;2023-06-14T16:42:07;-22007.66;;;26.72;29.49
19890;BME280;10107;51.198;6.824;2023-06-14T16:46:08;-22010.22;;;26.82;29.59
19890;BME280;10107;51.198;6.824;2023-06-14T16:50:12;-22010.75;;;26.84;29.02
19890;BME280;10107;51.198;6.824;2023-06-14T16:54:14;-22007.78;;;26.72;28.58
19890;BME280;10107;51.198;6.824;2023-06-14T16:58:16;-22006.09;;;26.65;29.49
19890;BME280;10107;51.198;6.824;2023-06-14T17:02:17;-21998.63;;;26.36;30.19
19890;BME280;10107;51.198;6.824;2023-06-14T17:06:20;-21995.66;;;26.24;30.76
19890;BME280;10107;51.198;6.824;2023-06-14T17:10:24;-21987.28;;;25.91;30.50
19890;BME280;10107;51.198;6.824;2023-06-14T17:14:26;-21984.06;;;25.78;31.79
19890;BME280;10107;51.198;6.824;2023-06-14T17:18:28;-21983.16;;;25.74;30.91
19890;BME280;10107;51.198;6.824;2023-06-14T17:22:31;-21981.22;;;25.66;31.20
19890;BME280;10107;51.198;6.824;2023-06-14T17:26:33;-21983.16;;;25.74;31.19
19890;BME280;10107;51.198;6.824;2023-06-14T17:30:35;-21979.81;;;25.61;31.52
19890;BME280;10107;51.198;6.824;2023-06-14T17:34:37;-21980.06;;;25.62;30.72
19890;BME280;10107;51.198;6.824;2023-06-14T17:38:40;-21974.91;;;25.41;30.92
19890;BME280;10107;51.198;6.824;2023-06-14T17:42:42;-21974.66;;;25.40;31.13
19890;BME280;10107;51.198;6.824;2023-06-14T17:46:43;-21975.41;;;25.43;31.66
19890;BME280;10107;51.198;6.824;2023-06-14T17:50:45;-21972.44;;;25.32;30.92
19890;BME280;10107;51.198;6.824;2023-06-14T17:54:48;-21967.53;;;25.12;31.03
19890;BME280;10107;51.198;6.824;2023-06-14T17:58:50;-21963.66;;;24.97;31.24
19890;BME280;10107;51.198;6.824;2023-06-14T18:02:53;-21963.78;;;24.97;31.44
19890;BME280;10107;51.198;6.824;2023-06-14T18:06:56;-21964.44;;;25.00;31.86
19890;BME280;10107;51.198;6.824;2023-06-14T18:11:02;-21968.69;;;25.17;31.67
19890;BME280;10107;51.198;6.824;2023-06-14T18:15:05;-21966.38;;;25.07;31.28
19890;BME280;10107;51.198;6.824;2023-06-14T18:19:07;-21964.06;;;24.98;31.88
19890;BME280;10107;51.198;6.824;2023-06-14T18:23:09;-21966.25;;;25.07;31.99
19890;BME280;10107;51.198;6.824;2023-06-14T18:27:12;-21961.47;;;24.88;32.49
19890;BME280;10107;51.198;6.824;2023-06-14T18:31:14;-21954.09;;;24.59;32.93
19890;BME280;10107;51.198;6.824;2023-06-14T18:35:16;-21951.13;;;24.47;33.80
19890;BME280;10107;51.198;6.824;2023-06-14T18:39:17;-21946.59;;;24.29;34.14
19890;BME280;10107;51.198;6.824;2023-06-14T18:43:21;-21941.81;;;24.10;34.63
19890;BME280;10107;51.198;6.824;2023-06-14T18:47:23;-21938.72;;;23.98;35.21
19890;BME280;10107;51.198;6.824;2023-06-14T18:51:25;-21935.09;;;23.83;35.38
19890;BME280;10107;51.198;6.824;2023-06-14T18:55:27;-21932.88;;;23.75;35.84
19890;BME280;10107;51.198;6.824;2023-06-14T18:59:30;-21930.56;;;23.65;35.99
19890;BME280;10107;51.198;6.824;2023-06-14T19:03:32;-21928.09;;;23.56;36.13
19890;BME280;10107;51.198;6.824;2023-06-14T19:07:34;-21924.22;;;23.40;36.84
19890;BME280;10107;51.198;6.824;2023-06-14T19:11:35;-21919.81;;;23.23;37.06
19890;BME280;10107;51.198;6.824;2023-06-14T19:15:38;-21916.69;;;23.10;37.56
19890;BME280;10107;51.198;6.824;2023-06-14T19:19:40;-21914.47;;;23.02;37.81
19890;BME280;10107;51.198;6.824;2023-06-14T19:23:43;-21911.50;;;22.90;38.59
19890;BME280;10107;51.198;6.824;2023-06-14T19:27:45;-21908.13;;;22.77;38.88
19890;BME280;10107;51.198;6.824;2023-06-14T19:31:49;-21905.78;;;22.67;39.12
19890;BME280;10107;51.198;6.824;2023-06-14T19:35:55;-21902.28;;;22.53;39.47
19890;BME280;10107;51.198;6.824;2023-06-14T19:39:57;-21899.19;;;22.41;39.91
19890;BME280;10107;51.198;6.824;2023-06-14T19:43:58;-21896.72;;;22.31;40.31
19890;BME280;10107;51.198;6.824;2023-06-14T19:48:05;-21894.25;;;22.22;41.31
19890;BME280;10107;51.198;6.824;2023-06-14T19:52:07;-21891.91;;;22.12;40.90
19890;BME280;10107;51.198;6.824;2023-06-14T19:56:09;-21889.44;;;22.03;41.27
19890;BME280;10107;51.198;6.824;2023-06-14T20:00:13;-21886.56;;;21.91;41.85
19890;BME280;10107;51.198;6.824;2023-06-14T20:04:17;-21883.97;;;21.81;42.26
19890;BME280;10107;51.198;6.824;2023-06-14T20:08:19;-21881.78;;;21.72;42.39
19890;BME280;10107;51.198;6.824;2023-06-14T20:12:24;-21879.56;;;21.64;42.61
19890;BME280;10107;51.198;6.824;2023-06-14T20:16:26;-21877.63;;;21.56;42.99
19890;BME280;10107;51.198;6.824;2023-06-14T20:20:29;-21875.41;;;21.47;43.32
19890;BME280;10107;51.198;6.824;2023-06-14T20:24:31;-21874.09;;;21.42;43.47
19890;BME280;10107;51.198;6.824;2023-06-14T20:28:35;-21872.41;;;21.35;43.86
19890;BME280;10107;51.198;6.824;2023-06-14T20:32:39;-21869.94;;;21.26;44.27
19890;BME280;10107;51.198;6.824;2023-06-14T20:36:43;-21868.63;;;21.21;44.88
19890;BME280;10107;51.198;6.824;2023-06-14T20:40:45;-21867.22;;;21.15;45.04
19890;BME280;10107;51.198;6.824;2023-06-14T20:44:47;-21865.25;;;21.07;45.22
19890;BME280;10107;51.198;6.824;2023-06-14T20:48:49;-21863.97;;;21.02;45.63
19890;BME280;10107;51.198;6.824;2023-06-14T20:52:52;-21862.91;;;20.98;45.49
19890;BME280;10107;51.198;6.824;2023-06-14T20:56:55;-21861.34;;;20.92;46.15
19890;BME280;10107;51.198;6.824;2023-06-14T21:00:57;-21859.00;;;20.83;46.31
19890;BME280;10107;51.198;6.824;2023-06-14T21:04:59;-21857.44;;;20.76;47.00
19890;BME280;10107;51.198;6.824;2023-06-14T21:09:03;-21856.28;;;20.72;47.46